Time;durP1;ratioP1;P1;durP2;ratioP2;P2;SDS_P1;SDS_P2;PMS_P1;PMS_P2;Temp;Humidity;BMP_temperature;BMP_pressure;BME280_temperature;BME280_humidity;BME280_pressure;Samples;Min_cycle;Max_cycle;Signal;HPM_P1;HPM_P2
2023/04/16 00:01:43;;;;;;;16.40;14.80;;;;;;;6.64;100.00;100162.22;108863;1257;73207;-52
2023/04/16 00:04:11;;;;;;;19.20;16.00;;;;;;;6.65;100.00;100163.10;108907;1257;66103;-51
2023/04/16 00:06:39;;;;;;;17.00;14.60;;;;;;;6.65;100.00;100166.65;108892;1260;70634;-50
2023/04/16 00:09:08;;;;;;;18.20;15.70;;;;;;;6.66;100.00;100169.66;108964;1259;62032;-49
2023/04/16 00:11:36;;;;;;;18.20;16.30;;;;;;;6.68;100.00;100167.31;108878;1256;59191;-53
2023/04/16 00:14:04;;;;;;;19.90;15.50;;;;;;;6.69;100.00;100167.64;108860;1255;72251;-49
2023/04/16 00:16:32;;;;;;;19.10;16.00;;;;;;;6.70;100.00;100173.14;108884;1257;66420;-50
2023/04/16 00:19:00;;;;;;;17.10;15.30;;;;;;;6.71;100.00;100176.67;108929;1256;72351;-48
2023/04/16 00:21:28;;;;;;;22.00;16.50;;;;;;;6.73;100.00;100177.86;108888;1256;60230;-50
2023/04/16 00:23:56;;;;;;;18.40;16.50;;;;;;;6.75;100.00;100176.75;108895;1260;60321;-48
2023/04/16 00:26:24;;;;;;;19.80;17.80;;;;;;;6.76;100.00;100175.66;106580;1261;73485;-51
2023/04/16 00:28:53;;;;;;;19.30;16.70;;;;;;;6.76;100.00;100175.84;108767;1260;68223;-50
2023/04/16 00:31:28;;;;;;;17.10;15.20;;;;;;;6.76;100.00;100175.66;106867;1260;73811;-50
2023/04/16 00:33:56;;;;;;;18.90;16.90;;;;;;;6.78;100.00;100183.11;106845;1257;60546;-50
2023/04/16 00:36:27;;;;;;;20.80;17.60;;;;;;;6.79;100.00;100180.23;105084;1257;60524;-50
2023/04/16 00:38:55;;;;;;;19.60;17.10;;;;;;;6.78;100.00;100178.28;106400;1260;75959;-52
2023/04/16 00:41:23;;;;;;;19.60;17.50;;;;;;;6.80;100.00;100185.71;107257;1260;66406;-50
2023/04/16 00:43:51;;;;;;;19.30;16.40;;;;;;;6.80;100.00;100179.45;105333;1257;73068;-51
2023/04/16 00:46:20;;;;;;;19.00;17.00;;;;;;;6.80;100.00;100182.87;105144;1262;60882;-51
2023/04/16 00:48:49;;;;;;;20.00;16.40;;;;;;;6.79;100.00;100183.98;105314;1258;60514;-50
2023/04/16 00:51:17;;;;;;;20.90;18.70;;;;;;;6.78;100.00;100180.06;106362;1260;74274;-48
2023/04/16 00:53:46;;;;;;;21.40;19.10;;;;;;;6.78;100.00;100181.85;105272;1258;66273;-51
2023/04/16 00:56:14;;;;;;;23.00;18.30;;;;;;;6.78;100.00;100186.13;105314;1257;70940;-48
2023/04/16 00:58:43;;;;;;;26.00;18.70;;;;;;;6.78;100.00;100182.58;105322;1260;62420;-54
2023/04/16 01:01:13;;;;;;;18.10;16.20;;;;;;;6.78;100.00;100184.18;105585;1258;60425;-48
2023/04/16 01:03:44;;;;;;;23.70;18.00;;;;;;;6.79;100.00;100189.86;105252;1263;73913;-52
2023/04/16 01:06:13;;;;;;;20.70;18.30;;;;;;;6.80;100.00;100188.38;105403;1260;64769;-51
2023/04/16 01:08:41;;;;;;;24.50;17.90;;;;;;;6.81;100.00;100189.98;105697;1260;73972;-51
2023/04/16 01:11:10;;;;;;;20.80;17.10;;;;;;;6.80;100.00;100186.77;105444;1260;63215;-51
2023/04/16 01:13:38;;;;;;;19.50;16.50;;;;;;;6.81;100.00;100185.15;106354;1257;60407;-52
2023/04/16 01:16:07;;;;;;;23.30;18.20;;;;;;;6.81;100.00;100191.20;105767;1257;74784;-47
2023/04/16 01:18:36;;;;;;;19.00;17.20;;;;;;;6.82;100.00;100186.73;105438;1260;67379;-50
2023/04/16 01:21:05;;;;;;;19.00;17.10;;;;;;;6.83;100.00;100189.39;105781;1259;71811;-48
2023/04/16 01:23:33;;;;;;;23.70;17.40;;;;;;;6.83;100.00;100189.73;105529;1262;62912;-47
2023/04/16 01:26:02;;;;;;;19.10;17.20;;;;;;;6.83;100.00;100189.02;105419;1260;61194;-49
2023/04/16 01:28:30;;;;;;;18.80;16.90;;;;;;;6.84;100.00;100188.99;105348;1258;73873;-46
2023/04/16 01:30:58;;;;;;;19.00;16.40;;;;;;;6.86;100.00;100192.00;105320;1257;67505;-50
2023/04/16 01:33:58;;;;;;;23.80;17.80;;;;;;;6.87;100.00;100192.52;105038;1262;72639;-52
2023/04/16 01:36:28;;;;;;;19.30;17.30;;;;;;;6.88;100.00;100191.96;105661;1260;61419;-51
2023/04/16 01:38:56;;;;;;;20.00;18.00;;;;;;;6.88;100.00;100193.39;105563;1257;60652;-53
2023/04/16 01:41:24;;;;;;;19.60;17.50;;;;;;;6.87;100.00;100193.59;105313;1257;72782;-52
2023/04/16 01:43:52;;;;;;;19.60;17.10;;;;;;;6.87;100.00;100196.24;105390;1259;66135;-52
2023/04/16 01:46:25;;;;;;;20.40;17.20;;;;;;;6.88;100.00;100198.19;105734;1260;72498;-53
2023/04/16 01:48:54;;;;;;;21.10;19.00;;;;;;;6.89;100.00;100197.09;105387;1261;62089;-53
2023/04/16 01:51:22;;;;;;;21.50;16.70;;;;;;;6.90;100.00;100203.30;105507;1257;61386;-54
2023/04/16 01:53:50;;;;;;;20.20;17.90;;;;;;;6.90;100.00;100203.85;105222;1261;75049;-51
2023/04/16 01:56:19;;;;;;;21.70;18.40;;;;;;;6.89;100.00;100201.52;105175;1263;68093;-51
2023/04/16 01:58:47;;;;;;;19.30;17.30;;;;;;;6.88;100.00;100202.64;105069;1260;73961;-54
2023/04/16 02:01:15;;;;;;;19.20;17.00;;;;;;;6.88;100.00;100201.94;105084;1261;195595;-51
2023/04/16 02:04:59;;;;;;;19.40;17.00;;;;;;;6.89;100.00;100217.25;102412;1293;600217;-54
2023/04/16 02:07:27;;;;;;;18.20;16.40;;;;;;;6.89;100.00;100234.38;104528;1271;62258;-54
2023/04/16 02:09:56;;;;;;;18.50;16.50;;;;;;;6.91;100.00;100232.52;104986;1266;60594;-54
2023/04/16 02:12:25;;;;;;;19.10;16.60;;;;;;;6.92;100.00;100230.71;104651;1267;72405;-54
2023/04/16 02:14:53;;;;;;;18.30;16.00;;;;;;;6.92;100.00;100230.00;104760;1269;67240;-54
2023/04/16 02:17:22;;;;;;;17.80;15.80;;;;;;;6.92;100.00;100228.21;104601;1272;72046;-53
2023/04/16 02:19:52;;;;;;;18.70;16.20;;;;;;;6.93;100.00;100228.20;104724;1263;60754;-53
2023/04/16 02:22:21;;;;;;;18.10;16.30;;;;;;;6.94;100.00;100225.48;104958;1267;60230;-52
2023/04/16 02:24:49;;;;;;;19.50;17.40;;;;;;;6.95;100.00;100223.52;105579;1265;72178;-53
2023/04/16 02:27:19;;;;;;;19.20;17.10;;;;;;;6.95;100.00;100222.81;104764;1269;65152;-51
2023/04/16 02:29:48;;;;;;;21.30;17.70;;;;;;;6.94;100.00;100224.77;105355;1266;71389;-53
2023/04/16 02:32:17;;;;;;;17.40;15.70;;;;;;;6.95;100.00;100229.05;104881;1267;61651;-53
2023/04/16 02:34:45;;;;;;;18.60;16.70;;;;;;;6.96;100.00;100225.98;106108;1257;59618;-53
2023/04/16 02:37:14;;;;;;;18.20;16.30;;;;;;;6.96;100.00;100223.48;105327;1262;72290;-53
2023/04/16 02:39:42;;;;;;;17.60;15.90;;;;;;;6.97;100.00;100226.52;105178;1259;66028;-54
2023/04/16 02:42:10;;;;;;;19.00;16.70;;;;;;;6.99;100.00;100230.00;105806;1257;72789;-52
2023/04/16 02:44:39;;;;;;;16.50;14.90;;;;;;;6.99;100.00;100231.79;105385;1257;59947;-51
2023/04/16 02:47:08;;;;;;;17.50;15.70;;;;;;;6.99;100.00;100235.35;105403;1257;61279;-53
2023/04/16 02:49:36;;;;;;;18.00;16.30;;;;;;;6.99;100.00;100236.05;108991;1257;73351;-54
2023/04/16 02:52:04;;;;;;;16.60;15.00;;;;;;;7.00;100.00;100242.48;109073;1259;67480;-49
2023/04/16 02:54:32;;;;;;;17.80;15.70;;;;;;;7.00;100.00;100241.92;105796;1257;70948;-49
2023/04/16 02:57:01;;;;;;;18.00;15.80;;;;;;;7.01;100.00;100241.54;108937;1255;61099;-50
2023/04/16 02:59:29;;;;;;;16.70;14.60;;;;;;;7.01;100.00;100246.53;109007;1256;58061;-53
2023/04/16 03:01:57;;;;;;;17.30;15.50;;;;;;;7.01;100.00;100247.08;108902;1254;73559;-51
2023/04/16 03:04:25;;;;;;;17.40;15.50;;;;;;;7.02;100.00;100250.09;108921;1257;66681;-51
2023/04/16 03:06:53;;;;;;;16.20;14.40;;;;;;;7.03;100.00;100251.66;108892;1257;72714;-54
2023/04/16 03:09:21;;;;;;;15.60;14.10;;;;;;;7.05;100.00;100253.95;109059;1256;61172;-51
2023/04/16 03:11:49;;;;;;;17.00;14.40;;;;;;;7.06;100.00;100257.84;108834;1254;60823;-50
2023/04/16 03:14:17;;;;;;;21.50;15.50;;;;;;;7.06;100.00;100262.29;107211;1258;73373;-49
2023/04/16 03:16:45;;;;;;;15.40;13.90;;;;;;;7.08;100.00;100263.11;105246;1258;64825;-50
2023/04/16 03:19:13;;;;;;;14.80;12.90;;;;;;;7.10;100.00;100265.76;108795;1257;73442;-54
2023/04/16 03:21:44;;;;;;;15.50;13.80;;;;;;;7.12;100.00;100268.05;108999;1256;60731;-51
2023/04/16 03:24:12;;;;;;;16.30;14.10;;;;;;;7.12;100.00;100268.73;109013;1257;59228;-52
2023/04/16 03:26:40;;;;;;;15.70;12.80;;;;;;;7.13;100.00;100272.11;109003;1259;73379;-52
2023/04/16 03:29:09;;;;;;;15.90;12.50;;;;;;;7.14;100.00;100275.11;109065;1257;65417;-48
2023/04/16 03:31:37;;;;;;;15.90;13.90;;;;;;;7.16;100.00;100276.48;108825;1255;72530;-52
2023/04/16 03:34:05;;;;;;;14.20;12.70;;;;;;;7.17;100.00;100278.23;109009;1256;62139;-49
2023/04/16 03:36:35;;;;;;;14.20;11.90;;;;;;;7.19;100.00;100278.02;108884;1256;59282;-49
2023/04/16 03:39:04;;;;;;;13.80;12.40;;;;;;;7.20;100.00;100279.42;105602;1257;71199;-50
2023/04/16 03:41:33;;;;;;;13.80;12.40;;;;;;;7.22;100.00;100280.44;105359;1258;68170;-53
2023/04/16 03:44:02;;;;;;;12.90;10.90;;;;;;;7.23;100.00;100281.83;105294;1254;71713;-47
2023/04/16 03:46:31;;;;;;;13.90;12.30;;;;;;;7.25;100.00;100281.61;105583;1260;60662;-53
2023/04/16 03:48:59;;;;;;;15.90;12.60;;;;;;;7.25;100.00;100282.13;105518;1258;59635;-50
2023/04/16 03:51:27;;;;;;;12.70;11.50;;;;;;;7.27;100.00;100284.43;105605;1261;73832;-52
2023/04/16 03:53:56;;;;;;;16.40;12.40;;;;;;;7.28;100.00;100289.39;105722;1257;67379;-54
2023/04/16 03:56:25;;;;;;;11.70;10.60;;;;;;;7.28;100.00;100290.98;105856;1257;72780;-53
2023/04/16 03:58:53;;;;;;;15.00;11.80;;;;;;;7.30;100.00;100295.07;105924;1259;60923;-48
2023/04/16 04:01:22;;;;;;;12.20;11.00;;;;;;;7.31;100.00;100293.25;106439;1257;59735;-51
2023/04/16 04:03:50;;;;;;;12.20;11.10;;;;;;;7.31;100.00;100294.84;105949;1258;72259;-49
2023/04/16 04:06:19;;;;;;;11.90;10.70;;;;;;;7.32;100.00;100293.90;105405;1257;67381;-52
2023/04/16 04:08:47;;;;;;;13.60;12.20;;;;;;;7.32;100.00;100294.08;105208;1257;71797;-51
2023/04/16 04:11:16;;;;;;;12.60;10.30;;;;;;;7.33;100.00;100291.55;105496;1259;61055;-52
2023/04/16 04:13:44;;;;;;;13.40;11.50;;;;;;;7.33;100.00;100292.64;106134;1259;60033;-51
2023/04/16 04:16:13;;;;;;;11.80;10.70;;;;;;;7.33;100.00;100292.44;108815;1254;72706;-52
2023/04/16 04:18:43;;;;;;;14.30;11.10;;;;;;;7.34;100.00;100297.61;106144;1262;66270;-47
2023/04/16 04:21:11;;;;;;;13.30;10.40;;;;;;;7.36;100.00;100298.83;105619;1257;71550;-48
2023/04/16 04:23:41;;;;;;;13.80;12.40;;;;;;;7.36;100.00;100297.74;105954;1262;61951;-50
2023/04/16 04:26:09;;;;;;;13.00;10.90;;;;;;;7.36;100.00;100300.79;105586;1259;61374;-55
2023/04/16 04:28:37;;;;;;;17.90;12.20;;;;;;;7.36;100.00;100303.63;105644;1257;72936;-49
2023/04/16 04:31:05;;;;;;;14.70;10.40;;;;;;;7.36;100.00;100303.09;105244;1257;67437;-51
2023/04/16 04:33:33;;;;;;;14.90;10.40;;;;;;;7.35;100.00;100304.54;105361;1257;72606;-52
2023/04/16 04:36:02;;;;;;;11.50;10.40;;;;;;;7.35;100.00;100304.54;105688;1260;61351;-53
2023/04/16 04:38:30;;;;;;;11.10;9.90;;;;;;;7.35;100.00;100311.33;105348;1260;59662;-52
2023/04/16 04:40:58;;;;;;;15.20;10.30;;;;;;;7.35;100.00;100314.73;105977;1257;71695;-50
2023/04/16 04:43:27;;;;;;;12.10;9.80;;;;;;;7.35;100.00;100311.15;105278;1257;67276;-50
2023/04/16 04:45:55;;;;;;;11.60;9.60;;;;;;;7.35;100.00;100312.95;105246;1259;71934;-51
2023/04/16 04:48:27;;;;;;;15.00;10.70;;;;;;;7.34;100.00;100311.36;105566;1260;60941;-52
2023/04/16 04:50:55;;;;;;;10.90;9.60;;;;;;;7.32;100.00;100310.52;105432;1257;60351;-51
2023/04/16 04:53:24;;;;;;;13.10;9.60;;;;;;;7.30;100.00;100311.83;105321;1257;72818;-52
2023/04/16 04:55:54;;;;;;;9.90;8.40;;;;;;;7.29;100.00;100316.86;105726;1256;65987;-48
2023/04/16 04:58:33;;;;;;;8.50;7.60;;;;;;;7.29;100.00;100319.02;105953;1258;72881;-52
2023/04/16 05:01:02;;;;;;;11.70;9.40;;;;;;;7.30;100.00;100320.21;105428;1257;63230;-52
2023/04/16 05:03:30;;;;;;;8.90;8.00;;;;;;;7.31;100.00;100324.48;104789;1259;60009;-54
2023/04/16 05:05:58;;;;;;;9.30;7.50;;;;;;;7.31;100.00;100325.58;104876;1260;73825;-47
2023/04/16 05:08:27;;;;;;;11.50;7.40;;;;;;;7.31;100.00;100331.09;105055;1261;67490;-52
2023/04/16 05:10:55;;;;;;;12.00;8.10;;;;;;;7.31;100.00;100327.17;105073;1258;71805;-53
2023/04/16 05:13:23;;;;;;;11.80;8.10;;;;;;;7.31;100.00;100330.20;104970;1258;62517;-53
2023/04/16 05:15:51;;;;;;;12.10;9.80;;;;;;;7.32;100.00;100334.42;105216;1256;60604;-53
2023/04/16 05:18:20;;;;;;;8.60;7.70;;;;;;;7.32;100.00;100336.57;105353;1255;73812;-54
2023/04/16 05:20:48;;;;;;;9.30;7.70;;;;;;;7.33;100.00;100333.88;105344;1259;66635;-53
2023/04/16 05:23:17;;;;;;;9.40;7.00;;;;;;;7.35;100.00;100335.98;105281;1258;71705;-54
2023/04/16 05:25:45;;;;;;;7.60;6.60;;;;;;;7.36;100.00;100337.20;105350;1259;62120;-52
2023/04/16 05:28:13;;;;;;;8.00;7.20;;;;;;;7.36;100.00;100333.46;105252;1260;60517;-50
2023/04/16 05:30:41;;;;;;;8.10;6.40;;;;;;;7.37;100.00;100336.45;107442;1257;72461;-52
2023/04/16 05:33:09;;;;;;;6.30;5.70;;;;;;;7.39;100.00;100334.45;108931;1254;66596;-52
2023/04/16 05:35:37;;;;;;;8.00;6.70;;;;;;;7.40;100.00;100336.18;104977;1255;71074;-50
2023/04/16 05:38:05;;;;;;;7.20;6.50;;;;;;;7.42;100.00;100341.33;105106;1256;62008;-54
2023/04/16 05:40:33;;;;;;;7.00;6.00;;;;;;;7.42;100.00;100344.35;105367;1257;59628;-52
2023/04/16 05:43:01;;;;;;;6.30;5.70;;;;;;;7.42;100.00;100344.70;105227;1256;73286;-55
2023/04/16 05:45:32;;;;;;;8.30;6.20;;;;;;;7.44;100.00;100342.52;105877;1259;68291;-50
2023/04/16 05:47:59;;;;;;;8.70;5.90;;;;;;;7.45;100.00;100346.06;105405;1260;72792;-52
2023/04/16 05:50:28;;;;;;;8.80;6.40;;;;;;;7.48;100.00;100348.84;106356;1260;61234;-52
2023/04/16 05:52:56;;;;;;;7.20;6.20;;;;;;;7.51;100.00;100351.80;105326;1257;59740;-52
2023/04/16 05:55:24;;;;;;;6.70;4.40;;;;;;;7.55;100.00;100350.65;105619;1261;73226;-50
2023/04/16 05:57:52;;;;;;;6.60;5.90;;;;;;;7.57;100.00;100353.77;108369;1257;66184;-49
2023/04/16 06:00:20;;;;;;;7.60;5.50;;;;;;;7.60;100.00;100356.19;105502;1260;73860;-53
2023/04/16 06:02:48;;;;;;;9.80;7.00;;;;;;;7.65;100.00;100358.42;109040;1256;62088;-52
2023/04/16 06:05:17;;;;;;;10.80;6.30;;;;;;;7.68;100.00;100359.73;108773;1255;60715;-53
2023/04/16 06:07:45;;;;;;;7.20;5.80;;;;;;;7.72;100.00;100364.64;106016;1257;71662;-54
2023/04/16 06:10:13;;;;;;;7.40;6.30;;;;;;;7.76;100.00;100371.48;109049;1257;66524;-52
2023/04/16 06:12:41;;;;;;;7.50;5.80;;;;;;;7.77;100.00;100368.42;109018;1257;71705;-52
2023/04/16 06:15:12;;;;;;;7.60;6.30;;;;;;;7.82;100.00;100375.80;108979;1256;60247;-51
2023/04/16 06:17:40;;;;;;;9.00;6.40;;;;;;;7.85;100.00;100378.05;108788;1256;59192;-51
2023/04/16 06:20:08;;;;;;;9.70;6.80;;;;;;;7.87;100.00;100380.48;105265;1259;71578;-50
2023/04/16 06:22:36;;;;;;;11.80;8.80;;;;;;;7.90;100.00;100376.31;109021;1255;65165;-51
2023/04/16 06:25:05;;;;;;;12.10;7.20;;;;;;;7.92;100.00;100373.53;108884;1257;71517;-50
2023/04/16 06:27:33;;;;;;;9.60;7.20;;;;;;;7.93;100.00;100374.41;108979;1257;60154;-51
2023/04/16 06:30:01;;;;;;;10.50;6.50;;;;;;;7.95;100.00;100379.38;108401;1257;59318;-51
2023/04/16 06:32:29;;;;;;;9.10;7.40;;;;;;;7.97;100.00;100381.83;108907;1256;72816;-50
2023/04/16 06:34:57;;;;;;;10.00;7.50;;;;;;;7.98;100.00;100383.05;108729;1256;68112;-52
2023/04/16 06:37:25;;;;;;;7.10;6.00;;;;;;;7.99;100.00;100385.34;108681;1257;71522;-53
2023/04/16 06:39:53;;;;;;;7.80;5.80;;;;;;;8.02;100.00;100390.23;108889;1257;62243;-50
2023/04/16 06:42:22;;;;;;;9.50;6.60;;;;;;;8.04;100.00;100395.93;108922;1258;60028;-52
2023/04/16 06:44:50;;;;;;;6.80;5.70;;;;;;;8.05;100.00;100398.92;108851;1255;73080;-53
2023/04/16 06:47:18;;;;;;;6.60;5.90;;;;;;;8.06;100.00;100399.09;108648;1262;66009;-51
2023/04/16 06:49:46;;;;;;;6.80;6.10;;;;;;;8.06;100.00;100397.66;108938;1255;73085;-50
2023/04/16 06:52:14;;;;;;;7.70;6.40;;;;;;;8.07;100.00;100400.52;106660;1258;60524;-52
2023/04/16 06:54:42;;;;;;;8.60;6.30;;;;;;;8.07;100.00;100404.77;104684;1258;62032;-52
2023/04/16 06:57:10;;;;;;;8.10;6.50;;;;;;;8.09;100.00;100407.73;105117;1259;74228;-52
2023/04/16 06:59:38;;;;;;;7.90;5.20;;;;;;;8.12;100.00;100408.21;104925;1257;65954;-52
2023/04/16 07:02:08;;;;;;;8.50;5.70;;;;;;;8.13;100.00;100410.51;105381;1257;72234;-51
2023/04/16 07:04:36;;;;;;;9.10;6.90;;;;;;;8.16;100.00;100412.77;105668;1262;60995;-49
2023/04/16 07:07:04;;;;;;;9.60;6.00;;;;;;;8.16;100.00;100411.69;105380;1257;60366;-49
2023/04/16 07:09:32;;;;;;;9.50;7.00;;;;;;;8.15;100.00;100414.40;109065;1253;74669;-51
2023/04/16 07:12:00;;;;;;;8.00;7.20;;;;;;;8.15;100.00;100416.36;105612;1256;68351;-50
2023/04/16 07:14:28;;;;;;;8.80;6.70;;;;;;;8.15;100.00;100413.86;106983;1254;72461;-53
2023/04/16 07:16:57;;;;;;;8.90;7.00;;;;;;;8.14;100.00;100415.85;105345;1255;61391;-51
2023/04/16 07:19:29;;;;;;;8.50;6.80;;;;;;;8.13;100.00;100414.08;105789;1254;60542;-53
2023/04/16 07:21:58;;;;;;;10.60;7.90;;;;;;;8.14;100.00;100417.27;105453;1255;73203;-50
2023/04/16 07:24:26;;;;;;;10.50;9.10;;;;;;;8.15;100.00;100417.25;105876;1256;67026;-50
2023/04/16 07:26:54;;;;;;;10.20;6.80;;;;;;;8.16;100.00;100417.58;106089;1257;73298;-47
2023/04/16 07:29:22;;;;;;;11.20;7.00;;;;;;;8.18;100.00;100421.27;105631;1253;61982;-49
2023/04/16 07:31:50;;;;;;;13.10;7.70;;;;;;;8.19;100.00;100420.33;105532;1255;60449;-49
2023/04/16 07:34:18;;;;;;;8.90;6.30;;;;;;;8.24;100.00;100422.36;105438;1259;73973;-50
2023/04/16 07:36:46;;;;;;;11.30;7.50;;;;;;;8.25;100.00;100420.88;106144;1254;67149;-50
2023/04/16 07:39:14;;;;;;;7.80;6.20;;;;;;;8.26;100.00;100422.28;105147;1254;71685;-52
2023/04/16 07:41:42;;;;;;;12.30;7.50;;;;;;;8.27;100.00;100422.27;104966;1260;60955;-49
2023/04/16 07:44:10;;;;;;;8.60;7.30;;;;;;;8.27;100.00;100421.89;104983;1254;61656;-52
2023/04/16 07:46:38;;;;;;;10.80;7.20;;;;;;;8.28;100.00;100423.83;105569;1254;75004;-50
2023/04/16 07:49:14;;;;;;;9.90;6.80;;;;;;;8.30;100.00;100423.62;105549;1256;68670;-54
2023/04/16 07:51:42;;;;;;;16.10;7.80;;;;;;;8.31;100.00;100423.25;106296;1256;71953;-51
2023/04/16 07:54:10;;;;;;;9.80;7.20;;;;;;;8.32;100.00;100425.20;105649;1260;63051;-50
2023/04/16 07:56:39;;;;;;;11.00;7.60;;;;;;;8.32;100.00;100425.36;106467;1256;61542;-51
2023/04/16 07:59:07;;;;;;;11.90;8.00;;;;;;;8.34;100.00;100425.33;105668;1264;75322;-50
2023/04/16 08:01:41;;;;;;;13.20;8.50;;;;;;;8.34;100.00;100427.98;105819;1258;67314;-49
2023/04/16 08:04:09;;;;;;;9.90;7.50;;;;;;;8.34;100.00;100429.58;105704;1258;72812;-51
2023/04/16 08:06:39;;;;;;;15.20;8.40;;;;;;;8.35;100.00;100429.75;105437;1254;64216;-51
2023/04/16 08:09:07;;;;;;;15.20;8.60;;;;;;;8.37;100.00;100428.63;106405;1261;60555;-52
2023/04/16 08:11:36;;;;;;;13.50;7.40;;;;;;;8.38;100.00;100430.58;105833;1255;74090;-57
2023/04/16 08:14:04;;;;;;;13.50;7.60;;;;;;;8.39;100.00;100431.97;107778;1256;66854;-52
2023/04/16 08:16:32;;;;;;;14.10;8.30;;;;;;;8.41;100.00;100430.33;105392;1257;74463;-49
2023/04/16 08:19:00;;;;;;;12.50;8.70;;;;;;;8.42;100.00;100429.02;105512;1255;62310;-51
2023/04/16 08:21:29;;;;;;;13.20;9.00;;;;;;;8.43;100.00;100430.06;105677;1257;61209;-54
2023/04/16 08:23:57;;;;;;;13.10;7.80;;;;;;;8.45;100.00;100428.92;106777;1255;74749;-53
2023/04/16 08:26:26;;;;;;;16.00;8.90;;;;;;;8.48;100.00;100430.84;105395;1254;67853;-52
2023/04/16 08:28:54;;;;;;;14.50;8.90;;;;;;;8.49;100.00;100432.77;106079;1253;72439;-54
2023/04/16 08:31:21;;;;;;;16.60;10.00;;;;;;;8.50;100.00;100434.17;105373;1259;61745;-50
2023/04/16 08:33:49;;;;;;;14.50;8.50;;;;;;;8.49;100.00;100434.55;108955;1253;60694;-50
2023/04/16 08:36:17;;;;;;;15.00;9.60;;;;;;;8.48;100.00;100434.40;105780;1256;74001;-50
2023/04/16 08:38:51;;;;;;;10.20;9.20;;;;;;;8.48;100.00;100433.52;105610;1254;67014;-51
2023/04/16 08:41:19;;;;;;;11.60;6.90;;;;;;;8.47;100.00;100433.36;106289;1256;74500;-53
2023/04/16 08:43:47;;;;;;;17.10;10.50;;;;;;;8.44;100.00;100432.71;105321;1262;63100;-51
2023/04/16 08:46:16;;;;;;;11.00;7.50;;;;;;;8.44;100.00;100433.80;106734;1253;60645;-54
2023/04/16 08:48:44;;;;;;;13.80;8.90;;;;;;;8.45;100.00;100434.84;105331;1258;73552;-49
2023/04/16 08:51:12;;;;;;;18.40;10.30;;;;;;;8.47;100.00;100437.82;106241;1254;66407;-53
2023/04/16 08:54:04;;;;;;;16.20;8.70;;;;;;;8.51;100.00;100436.63;105211;1257;72745;-53
2023/04/16 08:56:32;;;;;;;13.90;8.80;;;;;;;8.53;100.00;100440.48;104756;1258;60999;-54
2023/04/16 08:59:04;;;;;;;20.20;10.70;;;;;;;8.53;100.00;100437.63;105333;1254;60788;-53
2023/04/16 09:01:32;;;;;;;15.30;10.70;;;;;;;8.53;100.00;100434.95;106341;1257;73462;-53
2023/04/16 09:04:00;;;;;;;19.50;11.10;;;;;;;8.54;100.00;100434.56;109180;1254;68357;-52
2023/04/16 09:06:30;;;;;;;19.40;12.30;;;;;;;8.56;100.00;100434.88;109001;1254;70575;-52
2023/04/16 09:08:58;;;;;;;22.50;12.50;;;;;;;8.59;100.00;100436.41;108090;1254;60593;-51
2023/04/16 09:11:26;;;;;;;17.70;12.10;;;;;;;8.62;100.00;100438.29;109050;1253;60579;-52
2023/04/16 09:13:54;;;;;;;21.60;14.40;;;;;;;8.64;100.00;100437.33;109171;1254;74854;-54
2023/04/16 09:16:22;;;;;;;19.80;15.00;;;;;;;8.66;100.00;100437.45;109197;1254;66465;-52
2023/04/16 09:18:50;;;;;;;24.00;14.20;;;;;;;8.69;100.00;100444.49;109224;1254;72870;-54
2023/04/16 09:21:18;;;;;;;20.50;14.00;;;;;;;8.70;100.00;100446.42;109225;1253;59866;-52
2023/04/16 09:23:49;;;;;;;25.30;16.00;;;;;;;8.73;100.00;100445.83;109006;1254;60691;-54
2023/04/16 09:26:17;;;;;;;22.10;15.90;;;;;;;8.75;100.00;100453.47;108912;1254;74187;-54
2023/04/16 09:28:45;;;;;;;24.20;18.20;;;;;;;8.79;100.00;100452.45;109237;1254;66126;-54
2023/04/16 09:31:14;;;;;;;24.30;16.00;;;;;;;8.82;100.00;100457.53;109185;1253;70624;-54
2023/04/16 09:33:43;;;;;;;25.00;17.60;;;;;;;8.85;100.00;100459.58;109130;1254;61741;-54
2023/04/16 09:36:12;;;;;;;24.10;17.80;;;;;;;8.87;100.00;100466.68;109161;1253;58581;-54
2023/04/16 09:38:50;;;;;;;25.40;17.90;;;;;;;8.87;100.00;100467.05;109159;1254;74423;-54
2023/04/16 09:41:20;;;;;;;22.80;17.20;;;;;;;8.87;100.00;100472.23;109199;1254;68773;-55
2023/04/16 09:43:58;;;;;;;27.90;17.50;;;;;;;8.87;100.00;100476.00;108981;1254;73815;-54
2023/04/16 09:46:39;;;;;;;24.20;14.70;;;;;;;8.85;100.00;100483.05;106204;1253;61005;-53
2023/04/16 09:49:08;;;;;;;25.60;16.00;;;;;;;8.84;100.00;100486.67;105567;1257;60742;-51
2023/04/16 09:51:37;;;;;;;32.90;20.30;;;;;;;8.80;100.00;100490.70;105833;1257;74764;-53
2023/04/16 09:54:05;;;;;;;37.20;27.30;;;;;;;8.78;100.00;100491.65;106695;1260;68644;-53
2023/04/16 09:56:42;;;;;;;32.20;21.60;;;;;;;8.78;100.00;100493.45;106239;1253;73865;-53
2023/04/16 09:59:19;;;;;;;32.20;18.00;;;;;;;8.77;100.00;100496.54;105033;1254;61426;-51
2023/04/16 10:01:48;;;;;;;30.60;17.60;;;;;;;8.76;100.00;100502.63;105210;1252;60512;-50
2023/04/16 10:04:17;;;;;;;30.50;20.40;;;;;;;8.77;100.00;100504.02;108122;1255;74128;-54
2023/04/16 10:07:03;;;;;;;36.80;24.30;;;;;;;8.76;100.00;100501.77;106262;1257;68097;-53
2023/04/16 10:09:38;;;;;;;33.20;19.60;;;;;;;8.74;100.00;100501.45;105414;1256;72892;-51
2023/04/16 10:12:06;;;;;;;31.30;19.90;;;;;;;8.72;100.00;100499.70;105484;1258;62078;-52
2023/04/16 10:14:34;;;;;;;24.40;17.50;;;;;;;8.71;100.00;100502.95;105620;1255;60449;-54
2023/04/16 10:17:03;;;;;;;22.90;15.50;;;;;;;8.71;100.00;100503.85;105426;1256;73148;-53
2023/04/16 10:19:32;;;;;;;25.30;16.50;;;;;;;8.71;100.00;100504.56;105460;1253;67481;-53
2023/04/16 10:22:00;;;;;;;22.30;14.60;;;;;;;8.71;100.00;100506.34;105686;1260;73612;-52
2023/04/16 10:24:29;;;;;;;21.90;15.30;;;;;;;8.72;100.00;100509.00;105567;1257;62704;-54
2023/04/16 10:26:58;;;;;;;23.20;14.50;;;;;;;8.73;100.00;100508.98;106462;1254;60507;-51
2023/04/16 10:29:27;;;;;;;25.80;16.10;;;;;;;8.72;100.00;100507.77;106111;1254;73008;-51
2023/04/16 10:31:55;;;;;;;27.00;14.60;;;;;;;8.71;100.00;100506.00;105833;1257;67372;-48
2023/04/16 10:34:23;;;;;;;28.30;15.50;;;;;;;8.69;100.00;100508.00;105768;1253;71721;-49
2023/04/16 10:36:52;;;;;;;24.20;16.10;;;;;;;8.68;100.00;100511.77;105374;1254;62506;-50
2023/04/16 10:39:22;;;;;;;28.90;16.60;;;;;;;8.68;100.00;100510.19;105117;1254;60443;-51
2023/04/16 10:41:50;;;;;;;26.00;18.50;;;;;;;8.69;100.00;100515.17;105309;1257;73340;-49
2023/04/16 10:44:18;;;;;;;32.30;20.80;;;;;;;8.68;100.00;100517.00;104469;1254;68021;-54
2023/04/16 10:46:50;;;;;;;32.80;20.60;;;;;;;8.66;100.00;100518.86;104863;1253;71729;-52
2023/04/16 10:49:22;;;;;;;30.20;20.60;;;;;;;8.66;100.00;100522.80;104872;1257;61816;-53
2023/04/16 10:51:57;;;;;;;32.90;21.20;;;;;;;8.68;100.00;100519.32;105061;1254;60907;-50
2023/04/16 10:54:31;;;;;;;38.00;22.90;;;;;;;8.72;100.00;100523.15;104975;1254;73049;-50
2023/04/16 10:57:02;;;;;;;30.50;19.30;;;;;;;8.75;100.00;100522.55;105087;1254;67885;-52
2023/04/16 10:59:33;;;;;;;28.80;18.20;;;;;;;8.75;100.00;100518.23;105643;1257;73011;-48
2023/04/16 11:02:16;;;;;;;36.10;24.70;;;;;;;8.76;100.00;100520.02;105673;1254;61306;-53
2023/04/16 11:04:46;;;;;;;32.70;22.00;;;;;;;8.76;100.00;100522.14;105148;1254;60505;-55
2023/04/16 11:07:19;;;;;;;36.30;22.90;;;;;;;8.77;100.00;100522.82;105282;1254;75246;-51
2023/04/16 11:09:58;;;;;;;32.80;22.00;;;;;;;8.77;100.00;100525.52;106121;1254;65406;-49
2023/04/16 11:12:46;;;;;;;48.90;29.10;;;;;;;8.76;100.00;100531.27;106052;1256;71858;-54
2023/04/16 11:15:15;;;;;;;36.60;24.20;;;;;;;8.76;100.00;100527.89;105658;1258;62130;-50
2023/04/16 11:17:44;;;;;;;34.90;20.50;;;;;;;8.77;100.00;100529.96;105764;1256;60453;-52